Time;durP1;ratioP1;P1;durP2;ratioP2;P2;SDS_P1;SDS_P2;PMS_P1;PMS_P2;Temp;Humidity;BMP_temperature;BMP_pressure;BME280_temperature;BME280_humidity;BME280_pressure;Samples;Min_cycle;Max_cycle;Signal;HPM_P1;HPM_P2
2022/04/18 00:00:08;;;;;;;9.53;5.20;;;16.80;38.80;;;;;;4912975;29;20219;-91
2022/04/18 00:02:36;;;;;;;9.57;4.67;;;16.70;38.60;;;;;;4913616;29;20205;-92
2022/04/18 00:05:04;;;;;;;7.70;4.53;;;16.70;38.80;;;;;;4912597;29;20279;-91
2022/04/18 00:07:31;;;;;;;9.57;5.33;;;16.60;39.10;;;;;;4913625;29;20235;-90
2022/04/18 00:09:58;;;;;;;10.77;4.57;;;16.60;39.10;;;;;;4911895;29;20310;-90
2022/04/18 00:12:29;;;;;;;13.57;6.10;;;16.50;39.30;;;;;;4912477;29;21017;-90
2022/04/18 00:14:57;;;;;;;9.77;4.90;;;16.50;39.50;;;;;;4912545;29;20208;-91
2022/04/18 00:17:24;;;;;;;8.57;4.40;;;16.40;39.40;;;;;;4913457;29;20209;-91
2022/04/18 00:19:51;;;;;;;9.73;5.00;;;16.40;39.20;;;;;;4911639;29;20301;-90
2022/04/18 00:22:18;;;;;;;12.67;5.43;;;16.30;39.10;;;;;;4913411;29;20208;-90
2022/04/18 00:24:46;;;;;;;18.80;7.53;;;16.30;39.50;;;;;;4907872;29;20239;-89
2022/04/18 00:27:14;;;;;;;10.47;5.07;;;16.20;39.70;;;;;;4912533;29;20254;-90
2022/04/18 00:29:42;;;;;;;9.07;4.83;;;16.20;39.80;;;;;;4912133;29;20733;-89
2022/04/18 00:32:10;;;;;;;10.17;5.03;;;16.10;39.60;;;;;;4913560;29;20234;-89
2022/04/18 00:34:38;;;;;;;9.27;4.67;;;16.10;39.80;;;;;;4912907;29;20222;-90
2022/04/18 00:37:06;;;;;;;8.80;4.67;;;16.00;40.00;;;;;;4912550;29;20235;-92
2022/04/18 00:39:33;;;;;;;10.00;5.00;;;16.00;40.00;;;;;;4913851;29;20211;-89
2022/04/18 00:42:00;;;;;;;14.23;6.57;;;15.90;40.20;;;;;;4912193;29;20266;-91
2022/04/18 00:44:27;;;;;;;8.50;4.83;;;15.80;40.10;;;;;;4913274;29;20207;-91
2022/04/18 00:46:56;;;;;;;7.43;3.87;;;15.80;40.30;;;;;;4911351;29;20719;-92
2022/04/18 00:49:23;;;;;;;8.97;4.67;;;15.70;40.20;;;;;;4913702;29;20663;-92
2022/04/18 00:51:50;;;;;;;8.10;4.63;;;15.70;39.90;;;;;;4913404;29;20606;-96
2022/04/18 00:54:18;;;;;;;9.03;4.63;;;15.60;40.00;;;;;;4914428;29;20232;-92
2022/04/18 00:56:46;;;;;;;12.50;5.67;;;15.60;40.50;;;;;;4910809;29;20215;-90
2022/04/18 00:59:13;;;;;;;9.43;5.10;;;15.50;40.80;;;;;;4913846;29;20613;-91
2022/04/18 01:01:40;;;;;;;12.37;5.67;;;15.50;40.80;;;;;;4911937;29;20241;-90
2022/04/18 01:04:09;;;;;;;10.03;4.77;;;15.40;40.70;;;;;;4912976;29;20294;-90
2022/04/18 01:06:42;;;;;;;14.40;6.63;;;15.40;41.00;;;;;;4911434;29;20239;-94
2022/04/18 01:09:09;;;;;;;9.90;4.80;;;15.30;41.30;;;;;;4914514;29;20205;-91
2022/04/18 01:11:36;;;;;;;13.97;6.03;;;15.30;41.00;;;;;;4912456;29;20403;-90
2022/04/18 01:14:03;;;;;;;9.93;5.00;;;15.30;41.10;;;;;;4893847;29;20251;-91
2022/04/18 01:16:30;;;;;;;16.17;6.37;;;15.20;41.20;;;;;;4909898;29;20924;-93
2022/04/18 01:18:57;;;;;;;9.13;4.70;;;15.20;41.00;;;;;;4913600;29;20277;-95
2022/04/18 01:21:27;;;;;;;9.23;5.10;;;15.10;40.80;;;;;;4911985;29;20210;-90
2022/04/18 01:23:57;;;;;;;14.17;5.60;;;15.10;41.20;;;;;;4913963;29;20214;-91
2022/04/18 01:29:09;;;;;;;8.90;4.30;;;15.00;41.20;;;;;;4914571;29;20204;-93
2022/04/18 01:31:39;;;;;;;4.73;3.60;;;15.00;41.20;;;;;;4917998;29;20206;-93
2022/04/18 01:34:08;;;;;;;12.53;4.87;;;15.00;41.30;;;;;;4917341;29;20207;-91
2022/04/18 01:36:37;;;;;;;6.00;3.97;;;15.00;41.60;;;;;;4917491;29;20741;-95
2022/04/18 01:39:04;;;;;;;11.90;5.43;;;14.90;41.90;;;;;;4917077;29;20208;-90
2022/04/18 01:41:33;;;;;;;10.20;4.67;;;14.90;41.90;;;;;;4916274;29;20230;-93
2022/04/18 01:44:01;;;;;;;12.50;5.47;;;14.90;41.90;;;;;;4914036;29;20212;-91
2022/04/18 01:46:28;;;;;;;12.00;5.07;;;14.80;41.80;;;;;;4913489;29;20652;-91
2022/04/18 01:48:55;;;;;;;17.27;7.27;;;14.80;41.70;;;;;;4913964;29;20213;-93
2022/04/18 01:51:22;;;;;;;10.23;5.10;;;14.80;41.70;;;;;;4910361;29;20299;-92
2022/04/18 01:53:51;;;;;;;11.43;5.13;;;14.70;41.80;;;;;;4915677;29;20265;-92
2022/04/18 01:56:19;;;;;;;8.10;4.07;;;14.70;41.70;;;;;;4915446;29;20644;-92
2022/04/18 01:58:48;;;;;;;10.20;4.20;;;14.70;41.80;;;;;;4915473;29;20230;-91
2022/04/18 02:01:15;;;;;;;11.23;5.07;;;14.70;42.10;;;;;;4915999;29;20213;-91
2022/04/18 02:03:43;;;;;;;13.13;5.63;;;14.60;42.00;;;;;;4915421;29;20209;-91
2022/04/18 02:06:10;;;;;;;14.77;5.53;;;14.60;42.10;;;;;;4914765;29;20307;-92
2022/04/18 02:08:39;;;;;;;14.47;5.90;;;14.60;42.30;;;;;;4915263;29;20208;-91
2022/04/18 02:11:07;;;;;;;12.07;5.43;;;14.60;42.30;;;;;;4914476;29;20252;-92
2022/04/18 02:13:35;;;;;;;13.80;5.73;;;14.50;42.30;;;;;;4915289;29;20204;-92
2022/04/18 02:16:04;;;;;;;13.07;6.03;;;14.50;42.30;;;;;;4913513;29;20309;-92
2022/04/18 02:18:32;;;;;;;11.33;5.00;;;14.50;42.30;;;;;;4916410;29;20209;-91
2022/04/18 02:20:59;;;;;;;12.03;5.53;;;14.50;42.50;;;;;;4906336;29;20209;-91
2022/04/18 02:23:26;;;;;;;8.77;4.60;;;14.50;42.70;;;;;;4915798;29;20279;-92
2022/04/18 02:25:54;;;;;;;9.33;4.67;;;14.50;42.70;;;;;;4914368;29;20240;-91
2022/04/18 02:28:23;;;;;;;14.83;6.53;;;14.40;42.80;;;;;;4914356;29;20213;-92
2022/04/18 02:30:50;;;;;;;9.90;4.97;;;14.40;43.00;;;;;;4915316;29;20204;-91
2022/04/18 02:33:17;;;;;;;22.13;8.07;;;14.40;43.00;;;;;;4913568;29;20205;-90
2022/04/18 02:35:44;;;;;;;12.30;4.67;;;14.40;43.00;;;;;;4914805;29;20640;-91
2022/04/18 02:38:11;;;;;;;11.63;5.43;;;14.30;43.20;;;;;;4915036;29;20260;-93
2022/04/18 02:40:38;;;;;;;13.20;5.20;;;14.30;43.10;;;;;;4913400;29;20245;-92
2022/04/18 02:43:06;;;;;;;10.00;4.40;;;14.30;43.00;;;;;;4913365;29;20220;-91
2022/04/18 02:45:35;;;;;;;8.57;4.30;;;14.20;43.10;;;;;;4915732;29;20225;-91
2022/04/18 02:48:03;;;;;;;11.23;5.37;;;14.30;43.60;;;;;;4913041;29;20276;-91
2022/04/18 02:50:30;;;;;;;11.03;5.20;;;14.20;43.50;;;;;;4914338;29;20551;-90
2022/04/18 02:52:57;;;;;;;8.43;4.63;;;14.20;43.40;;;;;;4915508;29;20220;-92
2022/04/18 02:55:25;;;;;;;9.20;4.33;;;14.20;43.30;;;;;;4904631;29;20377;-91
2022/04/18 02:57:52;;;;;;;13.63;5.93;;;14.10;43.30;;;;;;4898535;29;20300;-93
2022/04/18 03:00:19;;;;;;;7.73;4.17;;;14.10;43.50;;;;;;4914097;29;21019;-91
2022/04/18 03:02:50;;;;;;;10.30;4.63;;;14.10;43.50;;;;;;4916349;29;20240;-92
2022/04/18 03:05:17;;;;;;;11.10;5.50;;;14.00;43.40;;;;;;4914302;29;20213;-91
2022/04/18 03:07:45;;;;;;;10.17;4.93;;;14.00;43.40;;;;;;4915654;29;20288;-92
2022/04/18 03:10:12;;;;;;;12.93;5.43;;;14.00;43.50;;;;;;4914782;29;20713;-90
2022/04/18 03:12:40;;;;;;;9.63;4.63;;;13.90;43.40;;;;;;4912856;29;20201;-91
2022/04/18 03:15:08;;;;;;;10.73;4.87;;;13.90;43.60;;;;;;4914466;29;20211;-94
2022/04/18 03:17:35;;;;;;;9.90;4.40;;;13.90;43.30;;;;;;4914657;29;20287;-91
2022/04/18 03:20:05;;;;;;;8.90;4.43;;;13.90;43.30;;;;;;4914677;29;20316;-89
2022/04/18 03:22:32;;;;;;;10.40;4.87;;;13.80;43.60;;;;;;4914161;29;20981;-91
2022/04/18 03:24:59;;;;;;;13.67;5.50;;;13.90;43.60;;;;;;4913827;29;20220;-92
2022/04/18 03:27:26;;;;;;;8.50;4.17;;;13.80;43.80;;;;;;4911364;29;20319;-92
2022/04/18 03:29:53;;;;;;;11.07;5.00;;;13.80;44.00;;;;;;4914239;29;20244;-91
2022/04/18 03:32:20;;;;;;;9.93;4.63;;;13.80;43.90;;;;;;4914906;29;20216;-91
2022/04/18 03:34:48;;;;;;;13.17;5.17;;;13.80;43.80;;;;;;4913633;29;20219;-94
2022/04/18 03:40:02;;;;;;;8.87;4.50;;;13.80;44.00;;;;;;4913075;29;20231;-92
2022/04/18 03:42:31;;;;;;;13.80;5.13;;;13.70;43.90;;;;;;4914602;29;20205;-92
2022/04/18 03:44:59;;;;;;;15.50;5.93;;;13.70;44.30;;;;;;4912770;29;20215;-92
2022/04/18 03:47:27;;;;;;;9.30;4.40;;;13.70;44.20;;;;;;4912959;29;20279;-94
2022/04/18 03:49:57;;;;;;;10.70;4.33;;;13.70;44.00;;;;;;4913099;29;20321;-93
2022/04/18 03:52:26;;;;;;;9.10;4.53;;;13.70;44.10;;;;;;4913680;29;20213;-92
2022/04/18 03:54:53;;;;;;;7.67;4.10;;;13.70;44.30;;;;;;4914121;29;20303;-92
2022/04/18 03:57:20;;;;;;;12.43;5.20;;;13.60;44.30;;;;;;4914087;29;20738;-94
2022/04/18 03:59:48;;;;;;;13.00;5.27;;;13.60;44.10;;;;;;4896016;29;20232;-92
2022/04/18 04:02:15;;;;;;;8.40;4.37;;;13.60;44.10;;;;;;4896042;29;20214;-94
2022/04/18 04:04:43;;;;;;;12.10;4.87;;;13.50;44.10;;;;;;4913355;29;20220;-94
2022/04/18 04:07:10;;;;;;;10.27;4.90;;;13.50;44.10;;;;;;4895956;29;20724;-92
2022/04/18 04:09:39;;;;;;;8.17;4.20;;;13.50;44.10;;;;;;4911981;29;20268;-92
2022/04/18 04:12:08;;;;;;;8.70;4.47;;;13.50;44.20;;;;;;4914438;29;20256;-94
2022/04/18 04:14:36;;;;;;;8.50;4.27;;;13.50;44.10;;;;;;4914305;29;20226;-91
2022/04/18 04:17:06;;;;;;;11.80;5.13;;;13.40;43.90;;;;;;4912473;29;20228;-91
2022/04/18 04:19:36;;;;;;;10.60;4.80;;;13.40;44.00;;;;;;4913610;29;21122;-92
2022/04/18 04:22:05;;;;;;;16.03;5.87;;;13.40;43.90;;;;;;4900602;29;20308;-92
2022/04/18 04:24:32;;;;;;;9.17;4.37;;;13.40;43.90;;;;;;4914046;29;20247;-92
2022/04/18 04:27:00;;;;;;;20.67;7.23;;;13.40;43.70;;;;;;4911469;29;20213;-93
2022/04/18 04:29:28;;;;;;;10.83;4.87;;;13.40;43.90;;;;;;4905487;29;20216;-91
2022/04/18 04:32:00;;;;;;;12.60;5.50;;;13.30;43.80;;;;;;4913105;29;20241;-91
2022/04/18 04:34:28;;;;;;;12.83;5.23;;;13.30;44.20;;;;;;4911957;29;20287;-91
2022/04/18 04:36:57;;;;;;;11.57;4.83;;;13.30;44.20;;;;;;4913065;29;20215;-91
2022/04/18 04:39:27;;;;;;;12.73;5.33;;;13.30;44.00;;;;;;4912246;29;20620;-90
2022/04/18 04:41:56;;;;;;;10.57;4.60;;;13.30;44.20;;;;;;4913868;29;20621;-90
2022/04/18 04:44:26;;;;;;;13.23;5.20;;;13.30;44.20;;;;;;4912039;29;20207;-92
2022/04/18 04:46:53;;;;;;;16.63;6.37;;;13.20;44.80;;;;;;4911996;29;20512;-92
2022/04/18 04:49:20;;;;;;;13.33;5.47;;;13.20;44.10;;;;;;4894591;29;20269;-91
2022/04/18 04:51:47;;;;;;;15.87;5.80;;;13.20;44.20;;;;;;4894039;29;20240;-91
2022/04/18 04:54:14;;;;;;;10.30;4.70;;;13.20;44.00;;;;;;4910459;29;20633;-91
2022/04/18 04:56:41;;;;;;;10.70;4.93;;;13.10;43.90;;;;;;4913023;29;20211;-92
2022/04/18 04:59:08;;;;;;;11.23;4.13;;;13.10;44.10;;;;;;4911867;29;20646;-91
2022/04/18 05:01:37;;;;;;;10.23;4.63;;;13.10;44.20;;;;;;4914726;29;20197;-93
2022/04/18 05:04:07;;;;;;;8.70;4.23;;;13.10;44.20;;;;;;4911748;29;20297;-92
2022/04/18 05:06:34;;;;;;;10.50;4.47;;;13.00;44.10;;;;;;4915911;29;20319;-91
2022/04/18 05:09:01;;;;;;;13.53;5.40;;;13.00;44.40;;;;;;4915012;29;20244;-93
2022/04/18 05:11:28;;;;;;;11.17;5.03;;;13.00;44.30;;;;;;4916765;29;20296;-90
2022/04/18 05:13:56;;;;;;;10.47;4.27;;;13.00;44.20;;;;;;4914670;29;20654;-92
2022/04/18 05:16:24;;;;;;;14.27;5.50;;;12.90;44.60;;;;;;4915483;29;20229;-91
2022/04/18 05:18:52;;;;;;;9.30;4.40;;;12.90;44.60;;;;;;4914189;29;20299;-92
2022/04/18 05:21:19;;;;;;;10.97;4.20;;;13.00;44.70;;;;;;4916875;29;20248;-89
2022/04/18 05:23:48;;;;;;;9.63;4.27;;;12.90;44.40;;;;;;4914557;29;20216;-90
2022/04/18 05:26:16;;;;;;;9.87;4.20;;;12.90;45.00;;;;;;4916048;29;20213;-90
2022/04/18 05:28:45;;;;;;;9.60;4.10;;;12.90;44.70;;;;;;4916292;29;20221;-90
2022/04/18 05:31:17;;;;;;;8.73;4.20;;;12.90;44.70;;;;;;4916262;29;20219;-91
2022/04/18 05:33:44;;;;;;;10.40;4.67;;;12.90;44.50;;;;;;4915989;29;20299;-91
2022/04/18 05:36:12;;;;;;;9.10;3.77;;;12.80;44.30;;;;;;4915491;29;20246;-90
2022/04/18 05:38:40;;;;;;;8.03;4.20;;;12.80;44.40;;;;;;4916543;29;20287;-91
2022/04/18 05:41:07;;;;;;;6.60;3.47;;;12.90;44.90;;;;;;4915090;29;20241;-92
2022/04/18 05:43:35;;;;;;;10.67;4.27;;;12.80;44.30;;;;;;4916099;29;20430;-90
2022/04/18 05:46:04;;;;;;;7.37;3.53;;;12.80;44.30;;;;;;4915155;29;20216;-91
2022/04/18 05:48:31;;;;;;;9.27;3.97;;;12.80;44.20;;;;;;4916031;29;20697;-91
2022/04/18 05:50:58;;;;;;;18.47;5.97;;;12.80;44.10;;;;;;4910756;29;20215;-91
2022/04/18 05:53:27;;;;;;;8.20;3.77;;;12.80;44.20;;;;;;4912625;29;20219;-91
2022/04/18 05:55:55;;;;;;;8.37;3.50;;;12.80;44.30;;;;;;4915398;29;20287;-93
2022/04/18 05:58:22;;;;;;;8.83;4.30;;;12.80;44.30;;;;;;4899655;29;20233;-91
2022/04/18 06:00:49;;;;;;;11.73;4.37;;;12.80;44.50;;;;;;4898631;29;20643;-90
2022/04/18 06:03:16;;;;;;;8.97;4.07;;;12.80;44.50;;;;;;4915054;29;20327;-90
2022/04/18 06:05:43;;;;;;;6.87;3.60;;;12.80;44.50;;;;;;4915044;29;20213;-91
2022/04/18 06:08:18;;;;;;;14.63;4.90;;;12.80;44.40;;;;;;4916282;29;20236;-91
2022/04/18 06:10:47;;;;;;;11.50;4.70;;;12.80;44.50;;;;;;4914613;29;20218;-91
2022/04/18 06:13:14;;;;;;;12.93;4.17;;;12.90;44.60;;;;;;4915387;29;20223;-92
2022/04/18 06:15:41;;;;;;;13.63;5.37;;;12.90;44.60;;;;;;4910526;29;20248;-92
2022/04/18 06:18:08;;;;;;;10.90;4.63;;;12.90;44.60;;;;;;4913741;29;20205;-93
2022/04/18 06:20:35;;;;;;;11.57;4.03;;;12.90;44.60;;;;;;4908386;29;20773;-93
2022/04/18 06:23:05;;;;;;;6.67;3.40;;;12.90;44.60;;;;;;4915910;29;20228;-93
2022/04/18 06:25:32;;;;;;;12.67;4.40;;;13.00;44.90;;;;;;4913853;29;20217;-92
2022/04/18 06:28:02;;;;;;;7.83;3.77;;;13.00;44.70;;;;;;4915246;29;20788;-94
2022/04/18 06:30:31;;;;;;;12.07;3.87;;;13.00;44.90;;;;;;4914367;29;20208;-94
2022/04/18 06:32:58;;;;;;;8.73;3.63;;;13.10;45.00;;;;;;4914339;29;20684;-93
2022/04/18 06:35:27;;;;;;;7.27;3.57;;;13.10;44.90;;;;;;4922597;29;20205;-91
2022/04/18 06:37:55;;;;;;;6.27;3.20;;;13.10;44.90;;;;;;4917918;29;20205;-93
2022/04/18 06:40:23;;;;;;;15.93;5.37;;;13.20;44.70;;;;;;4911056;29;20221;-94
2022/04/18 06:42:51;;;;;;;8.00;3.30;;;13.20;44.40;;;;;;4912346;29;20665;-90
2022/04/18 06:45:20;;;;;;;11.47;4.27;;;13.30;44.50;;;;;;4910885;29;20291;-91
2022/04/18 06:47:47;;;;;;;18.03;5.97;;;13.30;44.30;;;;;;4907099;29;20235;-90
2022/04/18 06:50:14;;;;;;;13.73;5.03;;;13.40;44.20;;;;;;4907334;29;20258;-90
2022/04/18 06:52:44;;;;;;;11.77;4.30;;;13.50;44.50;;;;;;4924732;29;20214;-90
2022/04/18 06:55:13;;;;;;;10.03;3.97;;;13.50;44.40;;;;;;4918309;29;20213;-90
2022/04/18 06:57:40;;;;;;;13.93;5.13;;;13.60;44.10;;;;;;4912617;29;20347;-94
2022/04/18 07:00:08;;;;;;;10.47;4.20;;;13.70;43.90;;;;;;4914227;29;20213;-89
2022/04/18 07:02:44;;;;;;;8.33;3.57;;;13.80;44.00;;;;;;4912512;29;20291;-92
2022/04/18 07:05:11;;;;;;;15.17;5.40;;;13.80;44.00;;;;;;4909168;29;20208;-90
2022/04/18 07:07:38;;;;;;;10.47;4.23;;;13.90;43.80;;;;;;4911941;29;20598;-90
2022/04/18 07:10:06;;;;;;;6.43;3.03;;;14.00;43.80;;;;;;4912928;29;20275;-90
2022/04/18 07:12:34;;;;;;;8.33;3.33;;;14.10;43.80;;;;;;4912581;29;20634;-91
2022/04/18 07:15:02;;;;;;;10.13;4.23;;;14.20;43.80;;;;;;4894975;29;463423;-90
2022/04/18 07:17:30;;;;;;;16.47;5.73;;;14.20;43.90;;;;;;4902087;29;20240;-90
2022/04/18 07:19:59;;;;;;;14.77;4.93;;;14.30;43.70;;;;;;4911558;29;20220;-90
2022/04/18 07:22:26;;;;;;;9.47;4.17;;;14.40;43.70;;;;;;4895548;29;20243;-91
2022/04/18 07:24:53;;;;;;;10.63;3.80;;;14.50;43.50;;;;;;4914205;29;20233;-89
2022/04/18 07:27:20;;;;;;;10.60;3.97;;;14.60;43.50;;;;;;4912464;29;20230;-91
2022/04/18 07:29:46;;;;;;;12.13;4.57;;;14.70;43.60;;;;;;4913813;29;20731;-90
2022/04/18 07:32:13;;;;;;;8.07;3.60;;;14.80;43.50;;;;;;4912141;29;20207;-90
2022/04/18 07:34:41;;;;;;;9.90;4.00;;;14.90;43.60;;;;;;4912357;29;20289;-88
2022/04/18 07:37:09;;;;;;;12.27;4.77;;;14.90;43.40;;;;;;4911621;29;20204;-92
2022/04/18 07:39:37;;;;;;;9.30;4.00;;;15.10;43.50;;;;;;4913945;29;20721;-90
2022/04/18 07:42:04;;;;;;;10.67;4.47;;;15.20;43.40;;;;;;4912389;29;20295;-91
2022/04/18 07:44:31;;;;;;;7.53;3.70;;;15.20;43.30;;;;;;4914963;29;20289;-92
2022/04/18 07:46:59;;;;;;;9.97;4.13;;;15.30;43.40;;;;;;4912353;29;20276;-90
2022/04/18 07:49:26;;;;;;;9.43;4.13;;;15.40;43.20;;;;;;4913322;29;20296;-91
2022/04/18 07:51:54;;;;;;;15.13;5.27;;;15.50;43.70;;;;;;4911085;29;20301;-93
2022/04/18 07:54:23;;;;;;;12.27;5.13;;;15.70;43.20;;;;;;4913205;29;20209;-92
2022/04/18 07:56:50;;;;;;;13.70;4.87;;;15.80;43.30;;;;;;4914169;29;20781;-91
2022/04/18 07:59:19;;;;;;;8.90;3.67;;;15.90;43.10;;;;;;4913153;29;20636;-90
2022/04/18 08:01:46;;;;;;;9.80;4.13;;;16.00;42.90;;;;;;4912958;29;20214;-91
2022/04/18 08:04:14;;;;;;;9.53;4.00;;;16.10;42.70;;;;;;4915203;29;20284;-91
2022/04/18 08:06:42;;;;;;;8.87;4.27;;;16.20;42.60;;;;;;4913082;29;20218;-91
2022/04/18 08:09:09;;;;;;;8.23;3.73;;;16.30;42.60;;;;;;4914397;29;20726;-94
2022/04/18 08:11:37;;;;;;;10.70;4.17;;;16.40;42.50;;;;;;4911778;29;20689;-89
2022/04/18 08:14:04;;;;;;;6.57;3.60;;;16.40;42.20;;;;;;4917924;29;20255;-91
2022/04/18 08:16:31;;;;;;;12.03;5.13;;;16.50;42.00;;;;;;4922469;29;20249;-91
2022/04/18 08:18:59;;;;;;;7.50;3.80;;;16.60;42.00;;;;;;4915821;29;20298;-91
2022/04/18 08:21:35;;;;;;;7.00;3.57;;;16.70;42.00;;;;;;4915433;29;20212;-93
2022/04/18 08:24:02;;;;;;;13.90;5.30;;;16.90;41.80;;;;;;4912917;29;20260;-92
2022/04/18 08:26:30;;;;;;;10.03;4.50;;;16.90;41.90;;;;;;4914010;29;20731;-91
2022/04/18 08:29:00;;;;;;;6.57;3.57;;;17.00;41.50;;;;;;4913859;29;20223;-91
2022/04/18 08:31:27;;;;;;;8.27;4.27;;;17.00;41.80;;;;;;4914123;29;20220;-91
2022/04/18 08:33:55;;;;;;;10.97;4.63;;;17.10;41.70;;;;;;4916361;29;20215;-92
2022/04/18 08:36:23;;;;;;;10.90;4.83;;;17.20;41.50;;;;;;4909213;29;20246;-91
2022/04/18 08:38:52;;;;;;;9.97;4.70;;;17.30;41.00;;;;;;4917999;29;20209;-89
2022/04/18 08:41:22;;;;;;;8.87;3.90;;;17.40;41.00;;;;;;4926087;29;20225;-90
2022/04/18 08:43:51;;;;;;;13.53;5.23;;;17.50;41.40;;;;;;4924799;29;20373;-92
2022/04/18 08:46:22;;;;;;;11.47;4.47;;;17.50;41.70;;;;;;4915209;29;20193;-92
2022/04/18 08:54:26;;;;;;;6.40;3.17;;;17.90;41.90;;;;;;4913807;29;20235;-91
2022/04/18 08:56:53;;;;;;;10.93;4.23;;;18.10;42.00;;;;;;4913446;29;20211;-90
2022/04/18 08:59:24;;;;;;;6.60;3.67;;;18.40;41.60;;;;;;4909011;29;20237;-90
2022/04/18 09:01:57;;;;;;;9.37;4.10;;;18.60;41.80;;;;;;4898505;29;20229;-91
2022/04/18 09:04:23;;;;;;;7.83;4.17;;;18.90;41.60;;;;;;4920066;29;20208;-90
2022/04/18 09:06:52;;;;;;;7.73;3.83;;;19.20;41.90;;;;;;4912163;29;20208;-89
2022/04/18 09:09:27;;;;;;;7.33;3.43;;;19.40;41.60;;;;;;4911550;29;20232;-90
2022/04/18 09:11:54;;;;;;;8.30;4.30;;;19.80;40.90;;;;;;4912545;29;20566;-90
2022/04/18 09:14:21;;;;;;;13.83;5.90;;;20.10;40.90;;;;;;4910135;29;20299;-90
2022/04/18 09:16:48;;;;;;;9.43;4.67;;;20.40;40.90;;;;;;4910964;29;20223;-90
2022/04/18 09:19:17;;;;;;;14.93;6.07;;;20.70;41.00;;;;;;4910659;29;20210;-92
2022/04/18 09:21:56;;;;;;;8.33;4.20;;;20.90;39.80;;;;;;4901649;29;20327;-91
2022/04/18 09:24:31;;;;;;;8.13;3.87;;;21.20;38.70;;;;;;4905370;29;20212;-90
2022/04/18 09:26:59;;;;;;;10.10;4.83;;;21.50;38.60;;;;;;4902055;29;20773;-90
2022/04/18 09:29:31;;;;;;;8.57;4.33;;;21.70;38.40;;;;;;4901185;29;20265;-91
2022/04/18 09:31:59;;;;;;;9.47;4.70;;;22.00;37.60;;;;;;4910425;29;20216;-91
2022/04/18 09:34:28;;;;;;;10.07;5.03;;;22.20;37.20;;;;;;4904479;29;20584;-89
2022/04/18 09:37:10;;;;;;;5.93;3.60;;;22.40;38.00;;;;;;4907698;29;20264;-90
2022/04/18 09:39:37;;;;;;;12.77;5.67;;;22.60;37.50;;;;;;4898407;29;21900;-90
2022/04/18 09:42:12;;;;;;;14.80;6.63;;;22.80;37.80;;;;;;4903357;29;20433;-90
2022/04/18 09:44:39;;;;;;;5.73;3.43;;;23.00;37.00;;;;;;4907877;29;20323;-91
2022/04/18 09:47:06;;;;;;;6.17;3.30;;;23.10;37.20;;;;;;4907723;29;20216;-93
2022/04/18 09:49:39;;;;;;;9.30;4.17;;;23.30;36.90;;;;;;4912089;29;20268;-92
2022/04/18 09:52:08;;;;;;;8.27;4.33;;;23.50;36.70;;;;;;4900380;29;20272;-92
2022/04/18 09:54:35;;;;;;;6.63;4.20;;;23.60;37.10;;;;;;4912660;29;20212;-93
2022/04/18 09:57:07;;;;;;;9.07;4.53;;;23.80;37.00;;;;;;4903407;29;20240;-93
2022/04/18 09:59:39;;;;;;;12.07;5.20;;;23.90;36.00;;;;;;4904956;29;20657;-94
2022/04/18 10:02:12;;;;;;;11.77;5.77;;;24.00;35.70;;;;;;4908013;29;20689;-91
2022/04/18 10:04:42;;;;;;;8.63;4.20;;;24.10;36.80;;;;;;4908699;29;20229;-92
2022/04/18 10:07:10;;;;;;;13.63;5.90;;;24.30;35.00;;;;;;4906872;29;20209;-94
2022/04/18 10:09:46;;;;;;;10.20;5.30;;;24.40;35.60;;;;;;4906370;29;20266;-92
2022/04/18 10:12:15;;;;;;;9.83;4.47;;;24.50;34.60;;;;;;4908181;29;20288;-92
2022/04/18 10:14:44;;;;;;;8.37;4.63;;;24.50;34.60;;;;;;4908359;29;20642;-93
2022/04/18 10:17:13;;;;;;;9.13;4.80;;;24.70;35.00;;;;;;4907227;29;20228;-93
2022/04/18 10:20:07;;;;;;;5.80;3.47;;;24.70;35.10;;;;;;4910642;29;20285;-94
2022/04/18 10:23:10;;;;;;;7.17;3.50;;;24.80;34.20;;;;;;4910403;29;20206;-92
2022/04/18 10:25:59;;;;;;;8.17;4.83;;;24.90;34.50;;;;;;4903310;29;20205;-93
2022/04/18 10:28:32;;;;;;;6.37;3.80;;;25.10;34.30;;;;;;4912450;29;20225;-93
2022/04/18 10:31:13;;;;;;;7.10;3.70;;;25.20;34.50;;;;;;4913214;29;20235;-93
2022/04/18 10:33:41;;;;;;;9.00;4.63;;;25.30;33.30;;;;;;4910560;29;20697;-94
2022/04/18 10:36:12;;;;;;;5.63;3.20;;;25.40;32.00;;;;;;4908372;29;20209;-94
2022/04/18 10:38:41;;;;;;;8.80;4.20;;;25.40;33.30;;;;;;4909212;29;20236;-95
2022/04/18 10:41:33;;;;;;;10.03;4.43;;;25.50;33.00;;;;;;4910498;29;20205;-93
2022/04/18 10:44:02;;;;;;;9.00;4.23;;;25.50;32.10;;;;;;4910302;29;20606;-92
2022/04/18 10:46:29;;;;;;;7.63;4.10;;;25.60;32.80;;;;;;4905216;29;20203;-92
2022/04/18 10:48:58;;;;;;;7.13;3.60;;;25.70;32.20;;;;;;4903925;29;20663;-91
2022/04/18 10:51:34;;;;;;;7.70;3.40;;;25.60;31.60;;;;;;4911820;29;20213;-93
2022/04/18 10:54:21;;;;;;;9.43;5.17;;;25.70;32.90;;;;;;4913453;29;20222;-93
2022/04/18 10:56:52;;;;;;;8.57;4.47;;;25.70;31.50;;;;;;4912201;29;20300;-93
2022/04/18 10:59:21;;;;;;;8.57;4.93;;;25.70;32.20;;;;;;4909900;29;20193;-91
2022/04/18 11:01:49;;;;;;;5.23;3.33;;;25.80;32.30;;;;;;4906310;29;20302;-89
2022/04/18 11:04:17;;;;;;;6.43;3.53;;;25.80;32.30;;;;;;4907300;29;20292;-93
2022/04/18 11:06:58;;;;;;;8.07;4.57;;;25.90;31.50;;;;;;4906137;29;20201;-90
2022/04/18 11:09:26;;;;;;;7.27;4.00;;;25.90;31.40;;;;;;4913770;29;20255;-91
2022/04/18 11:12:05;;;;;;;5.50;3.30;;;25.90;32.40;;;;;;4912197;29;20299;-91
2022/04/18 11:14:49;;;;;;;5.43;3.30;;;26.00;31.20;;;;;;4914754;29;20223;-92
2022/04/18 11:17:26;;;;;;;6.43;3.67;;;26.10;31.20;;;;;;4913285;29;20692;-90
2022/04/18 11:19:53;;;;;;;7.50;3.63;;;26.20;31.30;;;;;;4920934;29;20243;-91
2022/04/18 11:22:23;;;;;;;8.30;4.00;;;26.30;32.20;;;;;;4916284;29;20333;-90
2022/04/18 11:25:03;;;;;;;4.73;2.97;;;26.40;31.60;;;;;;4915004;29;20662;-91
2022/04/18 11:27:38;;;;;;;7.30;3.20;;;26.50;30.50;;;;;;4914074;29;20564;-91
2022/04/18 11:30:11;;;;;;;6.40;3.87;;;26.60;30.70;;;;;;4911180;29;20271;-90
2022/04/18 11:32:39;;;;;;;6.17;3.60;;;26.70;31.30;;;;;;4911238;29;20347;-91
2022/04/18 11:35:08;;;;;;;4.77;3.63;;;26.80;31.30;;;;;;4915685;29;20749;-91
2022/04/18 11:37:40;;;;;;;5.90;3.70;;;26.90;31.00;;;;;;4913028;29;20288;-90
2022/04/18 11:40:09;;;;;;;5.10;3.80;;;27.00;30.00;;;;;;4912848;29;20600;-90
2022/04/18 11:42:37;;;;;;;5.53;3.70;;;27.00;30.70;;;;;;4913981;29;20197;-91
2022/04/18 11:45:06;;;;;;;7.07;3.70;;;27.10;30.60;;;;;;4914067;29;20303;-90
2022/04/18 11:47:36;;;;;;;8.27;4.63;;;27.20;30.20;;;;;;4913873;29;20769;-90
2022/04/18 11:50:07;;;;;;;6.43;3.73;;;27.20;30.00;;;;;;4905843;29;20315;-90
2022/04/18 11:52:38;;;;;;;5.83;3.57;;;27.30;30.30;;;;;;4904012;29;20212;-90
2022/04/18 11:55:08;;;;;;;4.17;3.17;;;27.30;30.20;;;;;;4907570;29;20251;-90
2022/04/18 11:57:37;;;;;;;4.67;3.00;;;27.40;30.00;;;;;;4913794;29;20288;-91
2022/04/18 12:00:06;;;;;;;5.50;3.63;;;27.50;29.60;;;;;;4911616;29;20296;-91
2022/04/18 12:08:19;;;;;;;5.67;3.30;;;27.80;29.90;;;;;;4910936;29;20211;-91
2022/04/18 12:10:47;;;;;;;5.63;3.30;;;27.90;29.00;;;;;;4915667;29;20212;-90
2022/04/18 12:13:18;;;;;;;4.27;2.57;;;28.00;28.50;;;;;;4915966;29;20228;-91
2022/04/18 12:15:45;;;;;;;5.43;3.47;;;28.10;28.20;;;;;;4914024;29;20272;-90
2022/04/18 12:18:15;;;;;;;5.25;3.47;;;28.20;28.20;;;;;;4901482;29;20219;-91
2022/04/18 12:20:43;;;;;;;5.63;3.60;;;28.20;27.90;;;;;;4893983;29;20253;-90
2022/04/18 12:23:18;;;;;;;6.30;3.70;;;28.30;28.30;;;;;;4903615;29;20315;-90
2022/04/18 12:25:47;;;;;;;5.80;3.38;;;28.40;27.60;;;;;;4908162;29;20220;-91
2022/04/18 12:28:15;;;;;;;4.85;3.17;;;28.40;27.60;;;;;;4910752;29;20878;-91
2022/04/18 12:30:42;;;;;;;6.47;3.50;;;28.40;27.30;;;;;;4905286;29;20317;-91
2022/04/18 12:33:14;;;;;;;8.43;4.90;;;28.50;27.40;;;;;;4896887;29;20236;-91
2022/04/18 12:35:43;;;;;;;7.32;3.92;;;28.50;26.90;;;;;;4908407;29;20201;-92
2022/04/18 12:38:12;;;;;;;9.32;5.00;;;28.40;27.40;;;;;;4906505;29;20610;-91
2022/04/18 12:40:41;;;;;;;8.43;4.90;;;28.40;27.60;;;;;;4905507;29;20231;-91
2022/04/18 12:43:10;;;;;;;10.50;6.10;;;28.50;27.70;;;;;;4903213;29;20287;-92
2022/04/18 12:45:49;;;;;;;10.33;5.67;;;28.40;27.70;;;;;;4907120;29;22567;-91
2022/04/18 12:48:21;;;;;;;9.13;5.03;;;28.50;27.20;;;;;;4909439;29;20269;-92
2022/04/18 12:50:49;;;;;;;8.52;5.25;;;28.50;27.40;;;;;;4905722;29;20208;-92
2022/04/18 12:53:17;;;;;;;8.10;5.00;;;28.50;27.20;;;;;;4906309;29;20299;-90
2022/04/18 12:56:05;;;;;;;3.97;3.27;;;28.60;26.80;;;;;;4908283;29;20715;-91
2022/04/18 12:58:38;;;;;;;9.23;5.30;;;28.60;26.40;;;;;;4908696;29;20237;-90
2022/04/18 13:01:06;;;;;;;9.20;5.82;;;28.60;27.00;;;;;;4909508;29;20366;-90
2022/04/18 13:03:42;;;;;;;18.97;10.07;;;28.60;29.30;;;;;;4910821;29;20201;-90
2022/04/18 13:06:09;;;;;;;11.87;8.07;;;28.60;31.60;;;;;;4909972;29;20201;-94
2022/04/18 13:08:38;;;;;;;11.60;8.03;;;28.60;32.00;;;;;;4912134;29;20208;-94